createdAt,value
2016-09-30T00:01:04.162Z,999.78
2016-09-30T00:02:14.438Z,999.73
2016-09-30T00:03:24.419Z,999.73
2016-09-30T00:04:34.423Z,999.72
2016-09-30T00:05:44.714Z,999.73
2016-09-30T00:06:55.034Z,999.75
2016-09-30T00:08:05.335Z,999.78
2016-09-30T00:09:15.635Z,999.77
2016-09-30T00:10:25.630Z,999.8
2016-09-30T00:11:35.940Z,999.76
2016-09-30T00:12:46.238Z,999.79
2016-09-30T00:13:56.541Z,999.74
2016-09-30T00:15:06.840Z,999.75
2016-09-30T00:16:17.151Z,999.74
2016-09-30T00:17:27.125Z,999.77
2016-09-30T00:18:37.418Z,999.73
2016-09-30T00:19:47.713Z,999.73
2016-09-30T00:20:57.990Z,999.7
2016-09-30T00:22:07.989Z,999.72
2016-09-30T00:23:18.308Z,999.77
2016-09-30T00:24:28.616Z,999.76
2016-09-30T00:25:38.917Z,999.69
2016-09-30T00:26:49.245Z,999.74
2016-09-30T00:27:59.545Z,999.81
2016-09-30T00:29:09.854Z,999.73
2016-09-30T00:30:20.170Z,999.75
2016-09-30T00:31:30.161Z,999.74
2016-09-30T00:32:40.443Z,999.72
2016-09-30T00:33:50.729Z,999.68
2016-09-30T00:35:00.711Z,999.65
2016-09-30T00:36:11.020Z,999.65
2016-09-30T00:37:21.317Z,999.64
2016-09-30T00:38:31.615Z,999.64
2016-09-30T00:39:41.913Z,999.67
2016-09-30T00:40:51.891Z,999.61
2016-09-30T00:42:02.188Z,999.59
2016-09-30T00:43:12.181Z,999.62
2016-09-30T00:44:22.473Z,999.67
2016-09-30T00:45:32.451Z,999.64
2016-09-30T00:46:42.742Z,999.72
2016-09-30T00:47:53.034Z,999.68
2016-09-30T00:49:02.704Z,999.67
2016-09-30T00:50:13.008Z,999.69
2016-09-30T00:51:23.304Z,999.67
2016-09-30T00:52:33.291Z,999.6
2016-09-30T00:53:43.597Z,999.69
2016-09-30T00:54:53.883Z,999.66
2016-09-30T00:56:04.184Z,999.63
2016-09-30T00:57:14.167Z,999.63
2016-09-30T00:58:23.837Z,999.62
2016-09-30T00:59:33.814Z,999.62
2016-09-30T01:00:44.113Z,999.59
2016-09-30T01:01:54.418Z,999.63
2016-09-30T01:03:04.109Z,999.59
2016-09-30T01:04:14.423Z,999.56
2016-09-30T01:05:24.407Z,999.59
2016-09-30T01:06:34.404Z,999.56
2016-09-30T01:07:44.090Z,999.55
2016-09-30T01:08:54.391Z,999.54
2016-09-30T01:10:04.379Z,999.58
2016-09-30T01:11:14.663Z,999.54
2016-09-30T01:12:24.979Z,999.49
2016-09-30T01:19:55.724Z,999.42
2016-09-30T01:21:06.021Z,999.46
2016-09-30T01:22:16.007Z,999.43
2016-09-30T01:23:26.295Z,999.46
2016-09-30T01:24:36.577Z,999.46
2016-09-30T01:25:46.268Z,999.41
2016-09-30T01:26:56.559Z,999.44
2016-09-30T01:28:06.858Z,999.44
2016-09-30T01:29:17.156Z,999.4
2016-09-30T01:30:27.443Z,999.39
2016-09-30T01:31:37.116Z,999.42
2016-09-30T01:32:47.111Z,999.4
2016-09-30T01:33:57.395Z,999.4
2016-09-30T01:35:07.420Z,999.38
2016-09-30T01:36:17.713Z,999.41
2016-09-30T01:37:28.011Z,999.38
2016-09-30T01:38:38.303Z,999.43
2016-09-30T01:39:48.274Z,999.44
2016-09-30T01:40:58.561Z,999.47
2016-09-30T01:42:08.849Z,999.47
2016-09-30T01:43:19.122Z,999.45
2016-09-30T01:44:28.485Z,999.44
2016-09-30T01:45:38.463Z,999.43
2016-09-30T01:46:48.748Z,999.43
2016-09-30T01:47:58.740Z,999.43
2016-09-30T01:49:09.021Z,999.41
2016-09-30T01:50:19.314Z,999.43
2016-09-30T01:51:29.288Z,999.41
2016-09-30T01:52:39.586Z,999.41
2016-09-30T01:53:49.879Z,999.47
2016-09-30T01:54:59.882Z,999.41
2016-09-30T01:56:10.191Z,999.52
2016-09-30T01:57:20.176Z,999.49
2016-09-30T01:58:30.471Z,999.47
2016-09-30T01:59:40.182Z,999.5
2016-09-30T02:00:50.469Z,999.47
2016-09-30T02:02:00.451Z,999.44
2016-09-30T02:03:10.735Z,999.39
2016-09-30T02:04:21.034Z,999.4
2016-09-30T02:05:31.014Z,999.38
2016-09-30T02:06:41.290Z,999.42
2016-09-30T02:07:51.264Z,999.35
2016-09-30T02:09:01.247Z,999.34
2016-09-30T02:10:11.531Z,999.29
2016-09-30T02:11:21.813Z,999.35
2016-09-30T02:12:32.087Z,999.26
2016-09-30T02:13:42.388Z,999.31
2016-09-30T02:14:52.689Z,999.3
2016-09-30T02:16:02.675Z,999.27
2016-09-30T02:17:12.962Z,999.33
2016-09-30T02:18:22.935Z,999.29
2016-09-30T02:19:33.238Z,999.32
2016-09-30T02:20:43.213Z,999.31
2016-09-30T02:21:53.202Z,999.29
2016-09-30T02:23:03.505Z,999.29
2016-09-30T02:24:13.531Z,999.34
2016-09-30T02:25:23.524Z,999.31
2016-09-30T02:26:33.816Z,999.24
2016-09-30T02:27:44.102Z,999.25
2016-09-30T02:28:54.404Z,999.29
2016-09-30T02:30:04.688Z,999.27
2016-09-30T02:31:14.983Z,999.36
2016-09-30T02:32:24.963Z,999.35
2016-09-30T02:33:34.941Z,999.33
2016-09-30T02:34:44.313Z,999.36
2016-09-30T02:35:54.621Z,999.4
2016-09-30T02:37:04.601Z,999.4
2016-09-30T02:38:14.603Z,999.36
2016-09-30T02:39:24.575Z,999.34
2016-09-30T02:40:34.855Z,999.35
2016-09-30T02:41:44.833Z,999.32
2016-09-30T02:42:55.113Z,999.39
2016-09-30T02:44:05.396Z,999.37
2016-09-30T02:45:15.362Z,999.38
2016-09-30T02:46:25.661Z,999.34
2016-09-30T02:47:35.952Z,999.35
2016-09-30T02:48:45.932Z,999.32
2016-09-30T02:49:55.599Z,999.32
2016-09-30T02:51:05.275Z,999.3
2016-09-30T02:52:15.242Z,999.28
2016-09-30T02:53:25.201Z,999.32
2016-09-30T02:54:35.493Z,999.27
2016-09-30T02:55:45.784Z,999.35
2016-09-30T02:56:55.449Z,999.3
2016-09-30T02:58:05.736Z,999.28
2016-09-30T02:59:15.717Z,999.29
2016-09-30T03:00:25.995Z,999.31
2016-09-30T03:32:17.873Z,999.12
2016-09-30T03:33:27.840Z,999.1
2016-09-30T03:34:37.796Z,999.09
2016-09-30T03:35:47.466Z,999.09
2016-09-30T03:36:57.754Z,999.13
2016-09-30T03:38:07.424Z,999.13
2016-09-30T03:39:17.721Z,999.1
2016-09-30T03:40:27.685Z,999.12
2016-09-30T03:41:37.350Z,999.09
2016-09-30T03:42:47.637Z,999.12
2016-09-30T03:43:57.920Z,999.09
2016-09-30T03:45:07.585Z,999.09
2016-09-30T03:46:17.902Z,999.11
2016-09-30T03:47:27.577Z,999.12
2016-09-30T03:48:37.868Z,999.15
2016-09-30T03:49:48.138Z,999.15
2016-09-30T03:50:57.818Z,999.18
2016-09-30T03:52:08.109Z,999.22
2016-09-30T03:53:18.396Z,999.21
2016-09-30T03:54:28.378Z,999.21
2016-09-30T03:55:38.664Z,999.16
2016-09-30T03:56:48.961Z,999.22
2016-09-30T03:57:58.333Z,999.2
2016-09-30T03:59:08.308Z,999.21
2016-09-30T04:00:18.591Z,999.18
2016-09-30T04:01:28.885Z,999.19
2016-09-30T04:02:39.179Z,999.21
2016-09-30T04:03:49.454Z,999.17
2016-09-30T04:04:59.724Z,999.14
2016-09-30T04:06:09.391Z,999.18
2016-09-30T04:07:19.357Z,999.12
2016-09-30T04:08:29.644Z,999.14
2016-09-30T04:09:39.320Z,999.1
2016-09-30T04:10:49.617Z,999.12
2016-09-30T04:11:59.919Z,999.14
2016-09-30T04:13:09.597Z,999.12
2016-09-30T04:14:19.602Z,999.1
2016-09-30T04:15:29.893Z,999.16
2016-09-30T04:16:40.185Z,999.17
2016-09-30T04:17:50.168Z,999.18
2016-09-30T04:19:00.458Z,999.2
2016-09-30T04:20:10.451Z,999.23
2016-09-30T04:21:20.763Z,999.19
2016-09-30T04:22:30.744Z,999.25
2016-09-30T04:23:40.435Z,999.23
2016-09-30T04:24:50.411Z,999.22
2016-09-30T04:26:00.389Z,999.17
2016-09-30T04:27:10.670Z,999.14
2016-09-30T04:28:20.671Z,999.16
2016-09-30T04:29:30.649Z,999.15
2016-09-30T04:30:40.946Z,999.16
2016-09-30T04:31:51.238Z,999.11
2016-09-30T04:33:01.525Z,999.16
2016-09-30T04:34:11.516Z,999.12
2016-09-30T04:35:21.482Z,999.1
2016-09-30T04:36:31.803Z,999.08
2016-09-30T04:37:41.796Z,999.13
2016-09-30T04:38:51.783Z,999.11
2016-09-30T04:40:02.070Z,999.11
2016-09-30T04:41:12.361Z,999.08
2016-09-30T04:42:22.384Z,999.08
2016-09-30T04:43:32.369Z,999.08
2016-09-30T04:44:42.342Z,999.06
2016-09-30T04:45:52.317Z,999.11
2016-09-30T04:47:02.302Z,999.1
2016-09-30T04:48:12.275Z,999.14
2016-09-30T04:49:22.592Z,999.15
2016-09-30T04:50:32.594Z,999.18
2016-09-30T04:51:42.881Z,999.21
2016-09-30T04:52:53.173Z,999.22
2016-09-30T04:54:03.459Z,999.2
2016-09-30T04:55:13.753Z,999.27
2016-09-30T04:56:23.743Z,999.26
2016-09-30T04:57:33.725Z,999.24
2016-09-30T04:58:43.691Z,999.23
2016-09-30T04:59:53.685Z,999.22
2016-09-30T05:01:03.971Z,999.27
2016-09-30T05:02:14.272Z,999.28
2016-09-30T05:03:23.639Z,999.3
2016-09-30T05:04:33.922Z,999.33
2016-09-30T05:05:44.222Z,999.33
2016-09-30T05:06:54.510Z,999.33
2016-09-30T05:08:04.500Z,999.34
2016-09-30T05:09:14.781Z,999.34
2016-09-30T05:10:24.770Z,999.36
2016-09-30T05:11:34.431Z,999.37
2016-09-30T05:12:44.091Z,999.35
2016-09-30T05:13:54.378Z,999.38
2016-09-30T05:15:04.378Z,999.36
2016-09-30T05:16:14.683Z,999.41
2016-09-30T05:17:24.953Z,999.44
2016-09-30T05:18:34.932Z,999.4
2016-09-30T05:19:44.912Z,999.45
2016-09-30T05:20:55.191Z,999.43
2016-09-30T05:22:05.180Z,999.48
2016-09-30T05:23:15.483Z,999.45
2016-09-30T05:24:25.780Z,999.45
2016-09-30T05:25:36.060Z,999.45
2016-09-30T05:26:46.357Z,999.5
2016-09-30T05:27:56.344Z,999.53
2016-09-30T05:29:06.627Z,999.5
2016-09-30T05:30:16.289Z,999.53
2016-09-30T05:31:26.271Z,999.53
2016-09-30T05:32:36.579Z,999.53
2016-09-30T05:33:46.863Z,999.56
2016-09-30T05:34:56.846Z,999.59
2016-09-30T05:36:07.142Z,999.58
2016-09-30T05:37:17.123Z,999.58
2016-09-30T05:38:27.106Z,999.63
2016-09-30T05:39:36.782Z,999.61
2016-09-30T05:40:47.071Z,999.56
2016-09-30T05:41:57.344Z,999.55
2016-09-30T05:43:07.321Z,999.54
2016-09-30T05:44:17.615Z,999.57
2016-09-30T05:45:27.630Z,999.58
2016-09-30T05:46:37.593Z,999.61
2016-09-30T05:47:47.571Z,999.63
2016-09-30T05:48:57.247Z,999.65
2016-09-30T05:50:07.238Z,999.66
2016-09-30T05:51:17.244Z,999.68
2016-09-30T05:52:27.535Z,999.71
2016-09-30T05:53:37.817Z,999.71
2016-09-30T05:54:48.112Z,999.71
2016-09-30T05:55:58.084Z,999.76
2016-09-30T05:57:08.384Z,999.74
2016-09-30T05:58:18.351Z,999.74
2016-09-30T05:59:28.350Z,999.72
2016-09-30T06:00:38.316Z,999.72
2016-09-30T06:01:48.618Z,999.69
2016-09-30T06:02:58.910Z,999.71
2016-09-30T06:04:09.213Z,999.7
2016-09-30T06:05:19.504Z,999.74
2016-09-30T06:06:29.813Z,999.73
2016-09-30T06:07:39.794Z,999.76
2016-09-30T06:08:50.089Z,999.77
2016-09-30T06:10:00.385Z,999.8
2016-09-30T06:11:10.694Z,999.77
2016-09-30T06:12:21.011Z,999.76
2016-09-30T06:13:30.991Z,999.75
2016-09-30T06:14:40.968Z,999.77
2016-09-30T06:15:50.942Z,999.74
2016-09-30T06:17:00.971Z,999.77
2016-09-30T06:18:10.977Z,999.74
2016-09-30T06:19:20.954Z,999.73
2016-09-30T06:20:30.932Z,999.72
2016-09-30T06:21:40.907Z,999.73
2016-09-30T06:22:51.203Z,999.77
2016-09-30T06:24:01.481Z,999.74
2016-09-30T06:25:11.774Z,999.75
2016-09-30T06:26:22.075Z,999.8
2016-09-30T06:27:32.375Z,999.76
2016-09-30T06:28:42.358Z,999.8
2016-09-30T06:29:52.643Z,999.82
2016-09-30T06:31:02.637Z,999.78
2016-09-30T06:32:12.613Z,999.8
2016-09-30T06:33:22.904Z,999.77
2016-09-30T06:34:32.567Z,999.79
2016-09-30T06:35:42.852Z,999.78
2016-09-30T06:36:52.855Z,999.81
2016-09-30T06:38:02.832Z,999.79
2016-09-30T06:39:13.163Z,999.8
2016-09-30T06:40:23.455Z,999.8
2016-09-30T06:41:33.438Z,999.8
2016-09-30T06:42:43.429Z,999.8
2016-09-30T06:43:53.730Z,999.81
2016-09-30T06:45:04.003Z,999.81
2016-09-30T06:46:13.704Z,999.79
2016-09-30T06:47:24.006Z,999.79
2016-09-30T06:48:34.304Z,999.78
2016-09-30T06:49:44.599Z,999.78
2016-09-30T06:50:54.872Z,999.81
2016-09-30T06:52:04.853Z,999.85
2016-09-30T06:53:15.140Z,999.82
2016-09-30T06:54:24.807Z,999.86
2016-09-30T06:55:34.794Z,999.86
2016-09-30T06:56:44.480Z,999.87
2016-09-30T06:57:54.767Z,999.87
2016-09-30T06:59:04.757Z,999.88
2016-09-30T07:00:15.036Z,999.94
2016-09-30T07:01:25.021Z,999.93
2016-09-30T07:02:35.318Z,999.92
2016-09-30T07:03:45.611Z,999.95
2016-09-30T07:04:55.606Z,999.98
2016-09-30T07:06:05.280Z,999.99
2016-09-30T07:07:15.575Z,999.96
2016-09-30T07:08:25.567Z,999.96
2016-09-30T07:09:35.552Z,999.93
2016-09-30T07:10:45.236Z,999.94
2016-09-30T07:11:55.236Z,999.95
2016-09-30T07:13:05.549Z,999.92
2016-09-30T07:14:15.540Z,999.96
2016-09-30T07:15:25.515Z,999.94
2016-09-30T07:16:35.808Z,999.99
2016-09-30T07:17:45.798Z,999.95
2016-09-30T07:18:55.773Z,999.96
2016-09-30T07:20:05.942Z,999.99
2016-09-30T07:21:16.253Z,1000.02
2016-09-30T07:22:26.547Z,1000.03
2016-09-30T07:23:36.844Z,1000.04
2016-09-30T07:24:46.823Z,1000.03
2016-09-30T07:25:57.114Z,1000.07
2016-09-30T07:27:07.129Z,1000.07
2016-09-30T07:28:16.798Z,1000.1
2016-09-30T07:29:26.951Z,1000.15
2016-09-30T07:30:36.947Z,1000.18
2016-09-30T07:31:46.942Z,1000.15
2016-09-30T07:32:56.931Z,1000.16
2016-09-30T07:34:06.906Z,1000.2
2016-09-30T07:35:15.960Z,1000.18
2016-09-30T07:36:26.255Z,1000.19
2016-09-30T07:37:36.231Z,1000.18
2016-09-30T07:38:46.522Z,1000.25
2016-09-30T07:39:56.499Z,1000.25
2016-09-30T07:41:06.800Z,1000.25
2016-09-30T07:42:17.102Z,1000.26
2016-09-30T07:43:27.393Z,1000.23
2016-09-30T07:44:37.692Z,1000.24
2016-09-30T07:45:47.983Z,1000.28
2016-09-30T07:46:57.964Z,1000.3
2016-09-30T07:48:08.255Z,1000.32
2016-09-30T07:49:18.552Z,1000.37
2016-09-30T07:50:28.865Z,1000.32
2016-09-30T07:51:38.865Z,1000.36
2016-09-30T07:52:48.857Z,1000.35
2016-09-30T07:53:58.844Z,1000.38
2016-09-30T07:55:09.141Z,1000.35
2016-09-30T07:56:19.147Z,1000.36
2016-09-30T07:57:29.451Z,1000.36
2016-09-30T07:58:39.436Z,1000.32
2016-09-30T07:59:49.434Z,1000.31
2016-09-30T08:00:59.467Z,1000.3
2016-09-30T08:02:09.479Z,1000.35
2016-09-30T08:03:19.785Z,1000.32
2016-09-30T08:04:29.469Z,1000.3
2016-09-30T08:05:39.158Z,1000.32
2016-09-30T08:06:49.507Z,1000.32
2016-09-30T08:07:59.520Z,1000.32
2016-09-30T08:09:09.811Z,1000.3
2016-09-30T08:10:20.112Z,1000.34
2016-09-30T08:11:30.098Z,1000.32
2016-09-30T08:12:40.087Z,1000.32
2016-09-30T08:13:50.414Z,1000.39
2016-09-30T08:15:00.702Z,1000.37
2016-09-30T08:16:11.021Z,1000.35
2016-09-30T08:17:20.386Z,1000.37
2016-09-30T08:18:30.381Z,1000.37
2016-09-30T08:19:40.667Z,1000.4
2016-09-30T08:20:50.657Z,1000.39
2016-09-30T08:22:00.335Z,1000.41
2016-09-30T08:23:10.341Z,1000.41
2016-09-30T08:24:20.325Z,1000.37
2016-09-30T08:25:30.325Z,1000.4
2016-09-30T08:26:40.626Z,1000.42
2016-09-30T08:27:50.613Z,1000.38
2016-09-30T08:29:00.597Z,1000.39
2016-09-30T08:30:10.890Z,1000.39
2016-09-30T08:31:20.873Z,1000.39
2016-09-30T08:32:30.876Z,1000.36
2016-09-30T08:33:41.183Z,1000.41
2016-09-30T08:34:51.498Z,1000.39
2016-09-30T08:36:01.786Z,1000.36
2016-09-30T08:37:11.796Z,1000.41
2016-09-30T08:38:22.104Z,1000.37
2016-09-30T08:39:32.092Z,1000.4
2016-09-30T08:40:42.383Z,1000.43
2016-09-30T08:41:52.678Z,1000.41
2016-09-30T08:43:02.674Z,1000.4
2016-09-30T08:44:12.965Z,1000.4
2016-09-30T08:45:23.298Z,1000.41
2016-09-30T08:46:33.307Z,1000.41
2016-09-30T08:47:43.586Z,1000.4
2016-09-30T08:48:53.293Z,1000.4
2016-09-30T08:50:03.295Z,1000.35
2016-09-30T08:51:12.364Z,1000.33
2016-09-30T08:52:21.734Z,1000.36
2016-09-30T08:53:32.027Z,1000.4
2016-09-30T08:54:41.391Z,1000.41
2016-09-30T08:55:50.768Z,1000.38
2016-09-30T08:57:00.485Z,1000.39
2016-09-30T08:58:10.172Z,1000.39
2016-09-30T08:59:20.503Z,1000.38
2016-09-30T09:00:30.816Z,1000.34
2016-09-30T09:01:40.809Z,1000.32
2016-09-30T09:02:51.110Z,1000.31
2016-09-30T09:04:01.410Z,1000.31
2016-09-30T09:05:11.402Z,1000.31
2016-09-30T09:06:21.385Z,1000.31
2016-09-30T09:07:31.695Z,1000.33
2016-09-30T09:08:41.672Z,1000.29
2016-09-30T09:09:51.973Z,1000.3
2016-09-30T09:11:01.661Z,1000.31
2016-09-30T09:12:11.653Z,1000.31
2016-09-30T09:13:21.646Z,1000.31
2016-09-30T09:14:31.351Z,1000.3
2016-09-30T09:15:41.655Z,1000.3
2016-09-30T09:16:51.875Z,1000.32
2016-09-30T09:18:02.187Z,1000.31
2016-09-30T09:19:12.163Z,1000.24
2016-09-30T09:20:22.144Z,1000.29
2016-09-30T09:21:32.187Z,1000.31
2016-09-30T09:22:42.483Z,1000.29
2016-09-30T09:23:52.802Z,1000.26
2016-09-30T09:25:03.090Z,1000.31
2016-09-30T09:26:13.396Z,1000.25
2016-09-30T09:27:23.711Z,1000.22
2016-09-30T09:28:33.397Z,1000.2
2016-09-30T09:29:43.389Z,1000.21
2016-09-30T09:30:53.695Z,1000.2
2016-09-30T09:32:03.381Z,1000.18
2016-09-30T09:33:13.674Z,1000.15
2016-09-30T09:34:23.358Z,1000.13
2016-09-30T09:35:33.649Z,1000.12
2016-09-30T09:36:43.643Z,1000.07
2016-09-30T09:37:53.322Z,1000.1
2016-09-30T09:39:03.313Z,1000.05
2016-09-30T09:40:13.616Z,1000.01
2016-09-30T09:41:23.600Z,999.97
2016-09-30T09:42:33.591Z,1000.03
2016-09-30T09:43:44.180Z,999.98
2016-09-30T09:44:54.512Z,1000
2016-09-30T09:46:04.797Z,999.99
2016-09-30T09:47:14.805Z,1000
2016-09-30T09:48:25.102Z,1000
2016-09-30T09:49:34.789Z,999.98
2016-09-30T09:50:44.790Z,999.97
2016-09-30T09:51:55.090Z,999.95
2016-09-30T09:53:05.096Z,999.95
2016-09-30T09:54:15.392Z,1000
2016-09-30T09:55:25.392Z,999.97
2016-09-30T09:56:34.770Z,999.98
2016-09-30T09:57:45.061Z,999.95
2016-09-30T09:58:55.053Z,999.95
2016-09-30T10:00:05.365Z,999.87
2016-09-30T10:01:15.336Z,999.86
2016-09-30T10:02:25.025Z,999.85
2016-09-30T10:03:35.320Z,999.87
2016-09-30T10:04:45.623Z,999.83
2016-09-30T10:05:55.853Z,999.84
2016-09-30T10:07:05.855Z,999.83
2016-09-30T10:08:15.555Z,999.83
2016-09-30T10:09:25.544Z,999.83
2016-09-30T10:10:35.222Z,999.83
2016-09-30T10:11:45.512Z,999.81
2016-09-30T10:12:55.205Z,999.82
2016-09-30T10:14:05.532Z,999.78
2016-09-30T10:15:15.834Z,999.79
2016-09-30T10:16:25.832Z,999.8
2016-09-30T10:17:36.132Z,999.77
2016-09-30T10:18:46.140Z,999.77
2016-09-30T10:19:56.445Z,999.82
2016-09-30T10:21:06.741Z,999.79
2016-09-30T10:22:17.033Z,999.78
2016-09-30T10:23:27.326Z,999.77
2016-09-30T10:24:37.332Z,999.74
2016-09-30T10:25:47.634Z,999.71
2016-09-30T10:26:57.950Z,999.71
2016-09-30T10:28:08.277Z,999.73
2016-09-30T10:29:18.279Z,999.71
2016-09-30T10:30:28.280Z,999.73
2016-09-30T10:31:38.579Z,999.68
2016-09-30T10:32:48.574Z,999.67
2016-09-30T10:33:58.571Z,999.68
2016-09-30T10:35:08.601Z,999.7
2016-09-30T10:36:18.914Z,999.71
2016-09-30T10:37:28.902Z,999.68
2016-09-30T10:38:38.904Z,999.64
2016-09-30T10:39:49.233Z,999.58
2016-09-30T10:40:59.539Z,999.56
2016-09-30T10:42:09.846Z,999.58
2016-09-30T10:43:20.170Z,999.58
2016-09-30T10:44:30.467Z,999.58
2016-09-30T10:45:40.771Z,999.6
2016-09-30T10:46:50.769Z,999.53
2016-09-30T10:48:00.757Z,999.53
2016-09-30T10:49:11.053Z,999.5
2016-09-30T10:50:21.375Z,999.49
2016-09-30T10:51:31.702Z,999.49
2016-09-30T10:52:41.718Z,999.49
2016-09-30T10:53:52.017Z,999.44
2016-09-30T10:55:02.247Z,999.41
2016-09-30T10:56:12.240Z,999.45
2016-09-30T10:57:22.551Z,999.4
2016-09-30T10:58:32.862Z,999.4
2016-09-30T10:59:42.864Z,999.39
2016-09-30T11:00:53.211Z,999.39
2016-09-30T11:02:03.226Z,999.37
2016-09-30T11:03:13.558Z,999.35
2016-09-30T11:04:23.546Z,999.33
2016-09-30T11:05:33.555Z,999.28
2016-09-30T11:06:43.858Z,999.27
2016-09-30T11:07:53.842Z,999.24
2016-09-30T11:09:04.147Z,999.23
2016-09-30T11:10:13.847Z,999.18
2016-09-30T11:11:24.165Z,999.18
2016-09-30T11:12:34.486Z,999.22
2016-09-30T11:13:44.477Z,999.17
2016-09-30T11:14:54.510Z,999.15
2016-09-30T11:16:04.189Z,999.18
2016-09-30T11:17:14.180Z,999.17
2016-09-30T11:18:24.508Z,999.14
2016-09-30T11:19:34.503Z,999.13
2016-09-30T11:20:44.183Z,999.09
2016-09-30T11:21:54.493Z,999.06
2016-09-30T11:23:04.807Z,999.05
2016-09-30T11:24:15.097Z,999.06
2016-09-30T11:25:25.056Z,999.04
2016-09-30T11:26:35.648Z,999.04
2016-09-30T11:27:49.520Z,999.05
2016-09-30T11:28:59.926Z,999.01
2016-09-30T11:30:10.225Z,998.99
2016-09-30T11:31:20.522Z,999.01
2016-09-30T11:32:30.514Z,999.03
2016-09-30T11:33:40.220Z,999
2016-09-30T11:34:50.518Z,998.99
2016-09-30T11:36:00.516Z,999
2016-09-30T11:37:10.213Z,999
2016-09-30T11:38:20.511Z,998.95
2016-09-30T11:39:30.847Z,998.92
2016-09-30T11:40:41.159Z,998.89
2016-09-30T11:41:51.162Z,998.87
2016-09-30T11:43:01.469Z,998.92
2016-09-30T11:44:11.467Z,998.87
2016-09-30T11:45:21.788Z,998.87
2016-09-30T11:46:31.463Z,998.85
2016-09-30T11:47:41.758Z,998.87
2016-09-30T11:48:52.061Z,998.82
2016-09-30T11:50:01.788Z,998.85
2016-09-30T11:51:11.800Z,998.87
2016-09-30T11:52:22.108Z,998.83
2016-09-30T11:53:32.117Z,998.82
2016-09-30T11:54:42.414Z,998.82
2016-09-30T11:55:52.420Z,998.79
2016-09-30T11:57:02.409Z,998.79
2016-09-30T11:58:12.974Z,998.81
2016-09-30T11:59:22.993Z,998.81
2016-09-30T12:00:32.679Z,998.75
2016-09-30T12:01:42.686Z,998.76
2016-09-30T12:02:52.370Z,998.75
2016-09-30T12:04:02.066Z,998.74
2016-09-30T12:05:12.101Z,998.72
2016-09-30T12:06:22.429Z,998.71
2016-09-30T12:07:32.779Z,998.68
2016-09-30T12:08:42.780Z,998.7
2016-09-30T12:09:52.780Z,998.69
2016-09-30T12:11:03.089Z,998.65
2016-09-30T12:12:13.336Z,998.66
2016-09-30T12:13:23.660Z,998.68
2016-09-30T12:14:33.989Z,998.64
2016-09-30T12:15:43.995Z,998.64
2016-09-30T12:16:53.965Z,998.62
2016-09-30T12:18:03.955Z,998.59
2016-09-30T12:19:14.279Z,998.6
2016-09-30T12:20:24.261Z,998.59
2016-09-30T12:21:34.569Z,998.56
2016-09-30T12:22:44.559Z,998.53
2016-09-30T12:23:54.879Z,998.51
2016-09-30T12:25:05.200Z,998.52
2016-09-30T12:26:15.206Z,998.52
2016-09-30T12:27:24.898Z,998.48
2016-09-30T12:28:34.892Z,998.45
2016-09-30T12:29:45.210Z,998.46
2016-09-30T12:30:54.592Z,998.46
2016-09-30T12:32:04.889Z,998.48
2016-09-30T12:33:14.872Z,998.4
2016-09-30T12:34:24.948Z,998.37
2016-09-30T12:35:35.262Z,998.37
2016-09-30T12:36:45.280Z,998.36
2016-09-30T12:37:55.274Z,998.33
2016-09-30T12:39:05.572Z,998.32
2016-09-30T12:40:15.589Z,998.33
2016-09-30T12:41:25.579Z,998.29
2016-09-30T12:42:35.586Z,998.26
2016-09-30T12:43:45.599Z,998.25
2016-09-30T12:44:55.901Z,998.24
2016-09-30T12:46:05.615Z,998.23
2016-09-30T12:47:15.601Z,998.22
2016-09-30T12:48:25.285Z,998.21
2016-09-30T12:49:35.278Z,998.18
2016-09-30T12:50:45.608Z,998.14
2016-09-30T12:51:55.294Z,998.1
2016-09-30T12:53:05.588Z,998.1
2016-09-30T12:54:15.579Z,998.12
2016-09-30T12:55:25.900Z,998.13
2016-09-30T12:56:35.907Z,998.04
2016-09-30T12:57:46.220Z,998.03
2016-09-30T12:58:56.529Z,998.02
2016-09-30T13:00:06.825Z,998.06
2016-09-30T13:01:16.525Z,998.04
2016-09-30T13:02:26.500Z,998.05
2016-09-30T13:03:36.174Z,998.01
2016-09-30T13:04:46.176Z,998.02
2016-09-30T13:05:56.479Z,997.96
2016-09-30T13:07:06.782Z,997.95
2016-09-30T13:08:17.093Z,997.96
2016-09-30T13:09:27.405Z,997.93
2016-09-30T13:10:37.398Z,997.85
2016-09-30T13:11:47.709Z,997.86
2016-09-30T13:12:58.010Z,997.87
2016-09-30T13:14:08.001Z,997.87
2016-09-30T13:15:18.327Z,997.81
2016-09-30T13:16:28.334Z,997.8
2016-09-30T13:17:38.028Z,997.82
2016-09-30T13:18:48.353Z,997.82
2016-09-30T13:19:58.379Z,997.81
2016-09-30T13:21:08.092Z,997.76
2016-09-30T13:22:18.405Z,997.77
2016-09-30T13:23:28.081Z,997.74
2016-09-30T13:24:38.398Z,997.75
2016-09-30T13:25:48.397Z,997.75
2016-09-30T13:26:58.385Z,997.75
2016-09-30T13:28:08.716Z,997.73
2016-09-30T13:29:18.719Z,997.72
2016-09-30T13:30:29.020Z,997.69
2016-09-30T13:31:39.343Z,997.7
2016-09-30T13:32:49.329Z,997.63
2016-09-30T13:33:59.332Z,997.62
2016-09-30T13:35:08.711Z,997.63
2016-09-30T13:36:18.695Z,997.65
2016-09-30T13:37:29.000Z,997.59
2016-09-30T13:38:39.007Z,997.61
2016-09-30T13:39:49.320Z,997.58
2016-09-30T13:40:59.028Z,997.58
2016-09-30T13:42:09.029Z,997.56
2016-09-30T13:43:18.740Z,997.51
2016-09-30T13:44:28.748Z,997.54
2016-09-30T13:45:38.749Z,997.51
2016-09-30T13:46:48.765Z,997.51
2016-09-30T13:47:59.066Z,997.51
2016-09-30T13:49:09.413Z,997.51
2016-09-30T13:50:19.406Z,997.49
2016-09-30T13:51:29.714Z,997.52
2016-09-30T13:52:39.442Z,997.51
2016-09-30T13:53:49.435Z,997.49
2016-09-30T13:54:59.739Z,997.51
2016-09-30T13:56:09.734Z,997.49
2016-09-30T13:57:19.756Z,997.47
2016-09-30T13:58:30.064Z,997.45
2016-09-30T13:59:40.384Z,997.44
2016-09-30T14:00:50.376Z,997.46
2016-09-30T14:02:00.369Z,997.42
2016-09-30T14:03:10.374Z,997.48
2016-09-30T14:04:20.715Z,997.41
2016-09-30T14:05:30.410Z,997.41
2016-09-30T14:06:40.403Z,997.35
2016-09-30T14:07:50.395Z,997.38
2016-09-30T14:09:00.082Z,997.39
2016-09-30T14:10:10.384Z,997.35
2016-09-30T14:11:20.689Z,997.31
2016-09-30T14:12:30.697Z,997.37
2016-09-30T14:13:40.688Z,997.38
2016-09-30T14:14:51.004Z,997.38
2016-09-30T14:16:01.337Z,997.35
2016-09-30T14:17:11.655Z,997.33
2016-09-30T14:18:21.650Z,997.31
2016-09-30T14:19:31.361Z,997.28
2016-09-30T14:20:41.353Z,997.24
2016-09-30T14:21:50.749Z,997.24
2016-09-30T14:23:00.797Z,997.24
2016-09-30T14:24:10.809Z,997.22
2016-09-30T14:25:20.810Z,997.24
2016-09-30T14:26:31.108Z,997.22
2016-09-30T14:27:41.139Z,997.23
2016-09-30T14:28:51.159Z,997.22
2016-09-30T14:30:01.463Z,997.27
2016-09-30T14:31:11.772Z,997.27
2016-09-30T14:32:22.072Z,997.26
2016-09-30T14:33:32.067Z,997.28
2016-09-30T14:34:42.076Z,997.28
2016-09-30T14:35:52.074Z,997.24
2016-09-30T14:37:02.067Z,997.25
2016-09-30T14:38:12.084Z,997.23
2016-09-30T14:39:22.087Z,997.22
2016-09-30T14:40:32.072Z,997.2
2016-09-30T14:41:42.084Z,997.16
2016-09-30T14:42:52.084Z,997.14
2016-09-30T14:44:02.081Z,997.15
2016-09-30T14:45:12.076Z,997.14
2016-09-30T14:46:22.092Z,997.16
2016-09-30T14:47:31.776Z,997.11
2016-09-30T14:48:42.087Z,997.18
2016-09-30T14:49:52.076Z,997.17
2016-09-30T14:51:02.076Z,997.12
2016-09-30T14:52:12.374Z,997.17
2016-09-30T14:53:22.071Z,997.11
2016-09-30T14:54:32.071Z,997.13
2016-09-30T14:55:41.771Z,997.17
2016-09-30T14:56:52.081Z,997.11
2016-09-30T14:58:01.759Z,997.13
2016-09-30T14:59:11.449Z,997.12
2016-09-30T15:00:21.461Z,997.11
2016-09-30T15:01:31.771Z,997.12
2016-09-30T15:02:41.795Z,997.12
2016-09-30T15:03:51.521Z,997.1
2016-09-30T15:05:01.249Z,997.09
2016-09-30T15:06:10.945Z,997.11
2016-09-30T15:07:20.921Z,997.08
2016-09-30T15:08:30.307Z,997.12
2016-09-30T15:09:40.008Z,997.09
2016-09-30T15:10:50.005Z,997.09